Time;durP1;ratioP1;P1;durP2;ratioP2;P2;SDS_P1;SDS_P2;PMS_P1;PMS_P2;Temp;Humidity;BMP_temperature;BMP_pressure;BME280_temperature;BME280_humidity;BME280_pressure;Samples;Min_cycle;Max_cycle;Signal;HPM_P1;HPM_P2
2022/03/29 00:02:00;;;;;;;16.27;10.77;;;;;;;11.74;48.95;98692.88;4142377;28;20261;-68
2022/03/29 00:04:02;;;;;;;13.70;10.43;;;;;;;10.56;51.27;98700.19;4140940;28;20233;-67
2022/03/29 00:06:04;;;;;;;16.23;11.03;;;;;;;10.68;51.42;98686.44;4143228;28;20233;-70
2022/03/29 00:08:06;;;;;;;18.73;11.27;;;;;;;9.84;53.50;98683.03;4144665;28;20244;-68
2022/03/29 00:10:08;;;;;;;18.37;11.70;;;;;;;10.20;52.62;98676.22;4147180;28;20675;-68
2022/03/29 00:12:10;;;;;;;20.03;11.60;;;;;;;9.79;53.72;98672.13;4146110;28;20264;-68
2022/03/29 00:14:14;;;;;;;19.50;12.10;;;;;;;9.42;54.69;98655.19;4140420;28;20301;-68
2022/03/29 00:16:17;;;;;;;15.90;11.53;;;;;;;10.48;52.94;98643.66;4148244;28;20276;-70
2022/03/29 00:18:25;;;;;;;16.40;11.00;;;;;;;9.61;54.36;98653.06;4144060;28;20229;-67
2022/03/29 00:20:26;;;;;;;15.33;10.80;;;;;;;10.36;53.36;98628.22;4143252;28;20736;-67
2022/03/29 00:22:28;;;;;;;18.63;12.33;;;;;;;10.13;53.44;98648.75;4131932;28;20820;-68
2022/03/29 00:24:30;;;;;;;17.67;11.73;;;;;;;11.40;51.10;98618.25;4142244;28;20288;-67
2022/03/29 00:26:32;;;;;;;16.80;11.47;;;;;;;10.39;53.54;98624.34;4142578;28;20648;-67
2022/03/29 00:28:33;;;;;;;20.07;11.50;;;;;;;10.46;52.40;98641.19;4143055;28;20257;-68
2022/03/29 00:30:35;;;;;;;21.07;11.17;;;;;;;10.46;52.93;98630.56;4143224;28;20261;-68
2022/03/29 00:32:38;;;;;;;19.90;11.17;;;;;;;11.80;50.43;98606.06;4142543;28;20264;-68
2022/03/29 00:34:42;;;;;;;19.73;11.10;;;;;;;11.14;51.42;98627.66;4138078;28;20257;-69
2022/03/29 00:36:43;;;;;;;16.23;10.63;;;;;;;12.51;48.51;98605.03;4140360;28;20672;-68
2022/03/29 00:38:48;;;;;;;15.60;11.17;;;;;;;13.09;47.73;98582.41;4142355;28;20392;-68
2022/03/29 00:40:50;;;;;;;18.33;11.47;;;;;;;13.10;47.27;98584.88;4142668;28;20252;-68
2022/03/29 00:42:51;;;;;;;15.33;11.30;;;;;;;13.70;46.23;98576.84;4142600;28;20261;-68
2022/03/29 00:44:55;;;;;;;15.50;11.27;;;;;;;13.45;46.73;98608.72;4141503;28;20774;-68
2022/03/29 00:46:58;;;;;;;18.43;11.90;;;;;;;13.67;46.06;98605.81;4142762;28;20264;-69
2022/03/29 00:49:00;;;;;;;19.20;12.73;;;;;;;13.28;46.91;98618.13;4143018;28;20265;-68
2022/03/29 00:51:02;;;;;;;15.50;11.60;;;;;;;13.97;45.23;98590.16;4142809;28;20856;-68
2022/03/29 00:53:08;;;;;;;17.03;11.37;;;;;;;14.25;44.52;98584.53;4131088;28;20319;-68
2022/03/29 00:55:12;;;;;;;17.33;11.73;;;;;;;14.72;43.44;98572.81;4142977;28;20264;-68
2022/03/29 00:57:14;;;;;;;16.90;12.47;;;;;;;14.07;44.39;98628.00;4140835;28;20233;-68
2022/03/29 00:59:17;;;;;;;23.57;12.97;;;;;;;14.18;44.23;98628.38;4133195;28;20245;-68
2022/03/29 01:01:19;;;;;;;25.63;13.30;;;;;;;14.28;43.43;98618.88;4140092;28;20309;-68
2022/03/29 01:03:21;;;;;;;19.50;12.00;;;;;;;14.22;43.08;98625.03;4133615;28;20303;-68
2022/03/29 01:05:23;;;;;;;16.00;12.57;;;;;;;13.89;43.49;98651.88;4142588;28;20979;-68
2022/03/29 01:07:27;;;;;;;19.67;13.20;;;;;;;13.96;43.04;98645.47;4142945;28;20777;-68
2022/03/29 01:09:30;;;;;;;18.77;12.57;;;;;;;14.12;43.24;98632.69;4138349;28;20237;-69
2022/03/29 01:11:32;;;;;;;18.90;11.93;;;;;;;12.97;45.16;98660.38;4135615;28;20364;-67
2022/03/29 01:13:34;;;;;;;18.33;11.90;;;;;;;13.12;45.17;98641.53;4139372;28;20268;-68
2022/03/29 01:15:37;;;;;;;20.80;12.10;;;;;;;12.45;46.65;98641.31;4140497;28;20237;-68
2022/03/29 01:17:42;;;;;;;18.90;12.70;;;;;;;12.48;46.10;98658.75;4143588;28;20244;-68
2022/03/29 01:19:43;;;;;;;19.83;13.30;;;;;;;12.97;45.33;98647.03;4135750;28;20254;-68
2022/03/29 01:21:59;;;;;;;22.03;13.93;;;;;;;13.42;44.37;98621.66;4137537;28;20316;-68
2022/03/29 01:24:01;;;;;;;21.57;14.00;;;;;;;13.93;43.27;98604.97;4147084;28;20275;-68
2022/03/29 01:26:03;;;;;;;22.33;12.70;;;;;;;13.99;43.01;98608.66;4146437;28;20855;-68
2022/03/29 01:28:06;;;;;;;18.87;12.90;;;;;;;13.90;42.94;98621.44;4145753;28;20327;-68
2022/03/29 01:30:08;;;;;;;18.93;13.03;;;;;;;13.84;43.06;98633.78;4134712;28;20261;-68
2022/03/29 01:32:11;;;;;;;20.83;13.50;;;;;;;14.07;42.76;98619.13;4140369;28;20237;-68
2022/03/29 01:34:14;;;;;;;21.40;13.40;;;;;;;14.00;42.72;98627.16;4141800;28;20272;-68
2022/03/29 01:36:16;;;;;;;19.63;13.00;;;;;;;13.89;42.78;98635.84;4135645;28;20846;-68
2022/03/29 01:38:18;;;;;;;18.43;13.23;;;;;;;14.13;42.34;98607.59;4132081;28;20233;-69
2022/03/29 01:40:24;;;;;;;21.70;13.37;;;;;;;13.13;44.35;98645.84;4125984;28;20289;-68
2022/03/29 01:42:25;;;;;;;23.13;12.87;;;;;;;12.91;44.48;98647.88;4130790;28;20257;-68
2022/03/29 01:44:27;;;;;;;20.83;13.90;;;;;;;13.62;43.58;98635.81;4150683;28;20316;-68
2022/03/29 01:46:29;;;;;;;19.40;13.17;;;;;;;13.75;43.04;98629.63;4157486;28;20315;-68
2022/03/29 01:48:30;;;;;;;19.73;13.37;;;;;;;13.46;43.37;98646.91;4146376;28;20228;-68
2022/03/29 01:50:32;;;;;;;20.70;14.40;;;;;;;13.19;44.12;98657.56;4147345;28;20710;-68
2022/03/29 01:52:39;;;;;;;21.10;13.90;;;;;;;13.18;44.32;98648.75;4141450;28;20308;-68
2022/03/29 01:54:41;;;;;;;22.00;13.97;;;;;;;13.57;43.12;98638.28;4140889;28;20230;-68
2022/03/29 01:56:43;;;;;;;21.77;14.03;;;;;;;13.07;43.91;98646.66;4138639;28;20718;-68
2022/03/29 01:58:45;;;;;;;22.47;13.77;;;;;;;13.09;44.46;98641.94;4129823;28;20967;-68
2022/03/29 02:00:47;;;;;;;21.83;13.20;;;;;;;12.99;44.09;98647.69;4145462;28;20240;-68
2022/03/29 02:02:49;;;;;;;19.93;13.63;;;;;;;13.08;43.50;98636.78;4146746;28;20241;-68
2022/03/29 02:04:51;;;;;;;18.07;12.07;;;;;;;12.75;43.89;98650.84;4141999;28;20339;-68
2022/03/29 02:06:52;;;;;;;18.93;12.80;;;;;;;12.78;43.86;98643.25;4141445;28;20696;-68
2022/03/29 02:08:57;;;;;;;20.23;12.03;;;;;;;12.63;44.20;98635.41;4142333;28;20260;-68
2022/03/29 02:10:59;;;;;;;20.77;12.53;;;;;;;13.18;43.00;98621.19;4141443;28;20233;-67
2022/03/29 02:13:01;;;;;;;18.00;12.57;;;;;;;12.90;43.43;98642.72;4139861;28;20263;-68
2022/03/29 02:15:03;;;;;;;17.70;12.30;;;;;;;12.84;43.66;98639.81;4140859;28;20474;-69
2022/03/29 02:17:06;;;;;;;18.70;11.53;;;;;;;13.14;42.75;98633.31;4141167;28;20265;-68
2022/03/29 02:19:07;;;;;;;18.07;11.13;;;;;;;12.83;43.19;98643.47;4131012;28;20237;-68
2022/03/29 02:21:09;;;;;;;18.60;11.43;;;;;;;12.67;43.35;98644.69;4141725;28;20260;-69
2022/03/29 02:23:14;;;;;;;16.97;11.77;;;;;;;12.53;43.78;98636.81;4140676;28;20625;-68
2022/03/29 02:25:16;;;;;;;15.50;11.20;;;;;;;12.56;43.64;98633.75;4140716;28;20279;-68
2022/03/29 02:27:18;;;;;;;16.27;11.30;;;;;;;12.65;43.64;98617.38;4140397;28;20674;-68
2022/03/29 02:29:19;;;;;;;16.80;11.30;;;;;;;11.74;45.35;98644.13;4140445;28;21646;-68
2022/03/29 02:31:21;;;;;;;15.70;11.60;;;;;;;12.13;45.14;98615.31;4139969;28;20241;-68
2022/03/29 02:33:23;;;;;;;16.00;11.03;;;;;;;11.93;45.44;98626.66;4140544;28;20252;-69
2022/03/29 02:35:25;;;;;;;14.97;10.83;;;;;;;11.90;45.69;98603.91;4141335;28;20292;-69
2022/03/29 02:37:27;;;;;;;15.53;10.80;;;;;;;11.96;45.06;98612.13;4141891;28;20241;-69
2022/03/29 02:39:28;;;;;;;15.93;11.20;;;;;;;12.08;44.93;98606.06;4137459;28;20707;-69
2022/03/29 02:41:30;;;;;;;15.60;11.13;;;;;;;12.28;44.06;98600.00;4135954;28;20232;-69
2022/03/29 02:43:32;;;;;;;16.00;10.97;;;;;;;12.54;43.70;98588.63;4142849;28;20239;-69
2022/03/29 02:45:34;;;;;;;17.10;9.10;;;;;;;12.19;43.95;98609.19;4140687;28;20263;-70
2022/03/29 02:47:35;;;;;;;12.80;9.47;;;;;;;12.34;43.99;98607.22;4141496;28;20304;-69
2022/03/29 02:49:37;;;;;;;13.67;10.07;;;;;;;12.98;42.84;98583.84;4141243;28;20675;-70
2022/03/29 02:51:39;;;;;;;14.53;10.30;;;;;;;11.93;45.82;98602.69;4140471;28;20729;-69
2022/03/29 02:53:41;;;;;;;15.33;9.27;;;;;;;12.88;42.94;98578.91;4138949;28;20241;-69
2022/03/29 02:55:43;;;;;;;13.70;9.00;;;;;;;11.69;45.32;98630.56;4140695;28;20249;-69
2022/03/29 02:57:46;;;;;;;12.50;9.07;;;;;;;11.01;47.49;98616.88;4141277;28;20272;-69
2022/03/29 02:59:48;;;;;;;15.43;9.73;;;;;;;11.09;48.20;98574.19;4134076;28;20233;-69
2022/03/29 03:01:50;;;;;;;15.07;11.07;;;;;;;12.19;45.89;98591.34;4136743;28;20241;-69
2022/03/29 03:03:52;;;;;;;16.53;11.63;;;;;;;11.50;47.65;98586.81;4139121;28;20875;-69
2022/03/29 03:05:54;;;;;;;16.03;10.73;;;;;;;10.82;49.15;98595.22;4132897;28;20261;-69
2022/03/29 03:07:56;;;;;;;15.80;11.53;;;;;;;11.11;49.34;98566.84;4141392;28;20272;-69
2022/03/29 03:09:58;;;;;;;17.63;11.33;;;;;;;11.08;49.27;98583.19;4152154;28;20232;-69
2022/03/29 03:12:00;;;;;;;14.20;10.87;;;;;;;11.61;47.80;98566.81;4155435;28;20236;-69
2022/03/29 03:14:29;;;;;;;16.73;10.70;;;;;;;13.06;44.09;98516.91;4147545;28;20233;-69
2022/03/29 03:16:31;;;;;;;18.10;10.30;;;;;;;13.76;41.94;98487.84;4139370;28;20319;-69
2022/03/29 03:18:33;;;;;;;16.27;10.60;;;;;;;13.91;41.57;98495.63;4155839;28;20613;-69
2022/03/29 03:20:34;;;;;;;14.73;10.27;;;;;;;13.46;42.04;98545.44;4141851;28;20228;-69
2022/03/29 03:22:37;;;;;;;16.87;10.50;;;;;;;13.29;42.22;98543.19;4141645;28;20264;-69
2022/03/29 03:24:39;;;;;;;17.23;9.97;;;;;;;12.34;45.35;98590.41;4140646;28;20233;-69
2022/03/29 03:26:41;;;;;;;13.00;9.73;;;;;;;12.40;44.89;98571.75;4141261;28;20717;-69
2022/03/29 03:28:43;;;;;;;15.47;10.83;;;;;;;12.13;44.78;98599.31;4141650;28;20326;-70
2022/03/29 03:30:44;;;;;;;12.63;9.73;;;;;;;10.52;49.64;98581.16;4141282;28;20753;-69
2022/03/29 03:32:54;;;;;;;14.23;10.20;;;;;;;10.25;49.45;98589.63;4140915;28;20233;-69
2022/03/29 03:34:57;;;;;;;15.20;10.80;;;;;;;9.37;53.49;98567.34;4135618;28;20617;-69
2022/03/29 03:37:00;;;;;;;18.53;11.93;;;;;;;10.80;50.38;98541.38;4128919;28;20761;-70
2022/03/29 03:39:02;;;;;;;18.80;12.40;;;;;;;9.76;50.61;98586.72;4140130;28;20261;-69
2022/03/29 03:41:04;;;;;;;19.67;12.73;;;;;;;9.19;53.65;98554.41;4143131;28;20226;-69
2022/03/29 03:43:05;;;;;;;18.07;13.00;;;;;;;10.59;51.09;98518.25;4146129;28;20271;-69
2022/03/29 03:45:08;;;;;;;17.43;12.20;;;;;;;11.68;48.42;98525.09;4143517;28;20260;-69
2022/03/29 03:47:10;;;;;;;20.23;13.80;;;;;;;12.64;46.47;98502.88;4146365;28;20308;-69
2022/03/29 03:49:11;;;;;;;14.87;10.90;;;;;;;12.89;45.59;98497.81;4140499;28;20291;-69
2022/03/29 03:51:13;;;;;;;15.30;12.07;;;;;;;13.26;44.58;98492.88;4140357;28;20244;-68
2022/03/29 03:53:15;;;;;;;17.13;12.33;;;;;;;11.15;49.30;98576.91;4147030;28;20336;-69
2022/03/29 03:55:18;;;;;;;18.97;12.27;;;;;;;11.54;48.00;98590.72;4138945;28;20233;-71
2022/03/29 03:57:20;;;;;;;17.73;11.43;;;;;;;10.73;51.06;98548.44;4140684;28;20253;-69
2022/03/29 03:59:22;;;;;;;16.63;11.67;;;;;;;10.04;52.20;98555.03;4140044;28;20348;-69
2022/03/29 04:01:23;;;;;;;17.80;12.40;;;;;;;10.23;52.15;98532.41;4140220;28;20320;-69
2022/03/29 04:03:25;;;;;;;19.13;12.50;;;;;;;11.15;50.02;98509.56;4139915;28;20672;-69
2022/03/29 04:05:27;;;;;;;15.70;11.80;;;;;;;11.74;47.98;98542.94;4132988;28;20259;-69
2022/03/29 04:07:29;;;;;;;15.23;11.63;;;;;;;11.92;47.68;98521.94;4141212;28;20249;-69
2022/03/29 04:09:34;;;;;;;14.10;11.73;;;;;;;12.87;45.73;98491.88;4142646;28;20233;-69
2022/03/29 04:11:36;;;;;;;14.80;12.37;;;;;;;13.13;44.91;98476.88;4143450;28;20225;-69
2022/03/29 04:13:38;;;;;;;16.10;11.13;;;;;;;10.86;49.80;98553.13;4143734;28;20675;-69
2022/03/29 04:15:39;;;;;;;16.07;12.03;;;;;;;10.38;51.59;98545.63;4145453;28;20316;-69
2022/03/29 04:17:41;;;;;;;15.90;11.53;;;;;;;10.01;52.32;98532.34;4147214;28;20232;-69
2022/03/29 04:19:43;;;;;;;18.53;12.10;;;;;;;10.22;52.44;98522.78;4146968;28;20256;-69
2022/03/29 04:21:45;;;;;;;15.47;11.73;;;;;;;10.07;52.48;98509.50;4143450;28;20260;-69
2022/03/29 04:23:46;;;;;;;18.70;11.83;;;;;;;12.26;47.09;98474.13;4157282;28;20229;-69
2022/03/29 04:25:48;;;;;;;16.87;11.60;;;;;;;11.12;49.76;98502.81;4142983;28;20269;-69
2022/03/29 04:27:49;;;;;;;16.67;11.90;;;;;;;10.71;51.01;98510.59;4143796;28;20320;-69
2022/03/29 04:29:51;;;;;;;19.10;11.90;;;;;;;10.40;51.93;98496.59;4143757;28;20253;-69
2022/03/29 04:31:53;;;;;;;20.10;12.03;;;;;;;10.40;51.55;98504.56;4143318;28;20261;-69
2022/03/29 04:33:55;;;;;;;17.37;12.13;;;;;;;10.38;50.54;98527.03;4143364;28;20273;-69
2022/03/29 04:35:57;;;;;;;17.17;12.27;;;;;;;10.37;51.66;98481.03;4143679;28;20272;-69
2022/03/29 04:37:58;;;;;;;17.30;12.57;;;;;;;10.45;51.53;98496.03;4143419;28;20271;-69
2022/03/29 04:40:01;;;;;;;17.57;11.40;;;;;;;9.72;52.49;98511.09;4143467;28;20271;-69
2022/03/29 04:42:02;;;;;;;16.47;12.90;;;;;;;11.43;49.56;98471.50;4143210;28;20264;-69
2022/03/29 04:44:09;;;;;;;16.37;13.00;;;;;;;11.42;49.52;98512.44;4150643;28;20240;-69
2022/03/29 04:46:10;;;;;;;18.37;12.73;;;;;;;10.39;52.55;98486.16;4156391;28;20716;-69
2022/03/29 04:48:13;;;;;;;15.93;12.20;;;;;;;11.21;50.42;98502.66;4159445;28;20732;-69
2022/03/29 04:50:16;;;;;;;15.70;12.77;;;;;;;11.72;49.50;98489.88;4148038;28;20232;-68
2022/03/29 04:52:18;;;;;;;17.10;12.37;;;;;;;11.67;49.49;98492.28;4142741;28;20284;-69
2022/03/29 04:54:19;;;;;;;18.23;12.13;;;;;;;12.28;48.52;98453.41;4140947;28;20876;-69
2022/03/29 04:56:21;;;;;;;16.70;11.90;;;;;;;10.62;52.13;98510.72;4144056;28;20323;-69
2022/03/29 04:58:24;;;;;;;17.67;12.23;;;;;;;10.38;53.16;98511.91;4148566;28;20328;-69
2022/03/29 05:00:26;;;;;;;20.87;12.23;;;;;;;10.29;53.83;98501.59;4141080;28;20253;-69
2022/03/29 05:02:28;;;;;;;16.17;12.50;;;;;;;11.96;49.78;98449.63;4143268;28;20316;-69
2022/03/29 05:04:30;;;;;;;20.17;12.13;;;;;;;12.86;47.19;98415.53;4139846;28;20249;-69
2022/03/29 05:06:32;;;;;;;16.43;12.43;;;;;;;10.53;52.27;98519.00;4137676;28;20263;-69
2022/03/29 05:08:33;;;;;;;20.47;12.47;;;;;;;11.88;50.00;98477.25;4142720;28;20430;-69
2022/03/29 05:10:35;;;;;;;16.23;12.97;;;;;;;10.30;53.22;98513.88;4142027;28;20252;-69
2022/03/29 05:12:45;;;;;;;17.23;12.53;;;;;;;11.26;51.12;98511.72;4140785;28;20633;-69
2022/03/29 05:14:47;;;;;;;16.57;11.87;;;;;;;10.49;53.77;98493.84;4148604;28;20243;-69
2022/03/29 05:16:48;;;;;;;15.83;12.43;;;;;;;10.01;54.96;98507.59;4142520;28;20379;-69
2022/03/29 05:18:51;;;;;;;16.30;12.83;;;;;;;10.92;52.49;98494.66;4143185;28;20265;-69
2022/03/29 05:20:53;;;;;;;19.40;12.67;;;;;;;8.93;55.94;98534.41;4139642;28;20253;-69
2022/03/29 05:22:55;;;;;;;18.73;13.40;;;;;;;9.03;57.30;98483.78;4142748;28;20368;-69
2022/03/29 05:24:57;;;;;;;19.17;12.73;;;;;;;10.55;52.94;98459.34;4142124;28;20269;-69
2022/03/29 05:26:59;;;;;;;20.70;13.77;;;;;;;12.09;49.01;98426.50;4142485;28;20272;-69
2022/03/29 05:29:02;;;;;;;17.73;13.13;;;;;;;12.60;47.63;98419.81;4141302;28;20273;-69
2022/03/29 05:31:05;;;;;;;18.87;14.00;;;;;;;10.15;53.17;98517.38;4142032;28;20237;-69
2022/03/29 05:33:10;;;;;;;17.97;13.77;;;;;;;9.69;55.05;98514.97;4142319;28;20237;-69
2022/03/29 05:35:12;;;;;;;20.20;13.83;;;;;;;10.65;52.99;98503.38;4143191;28;20237;-69
2022/03/29 05:37:14;;;;;;;23.23;16.80;;;;;;;10.58;53.12;98495.34;4142401;28;20249;-69
2022/03/29 05:39:16;;;;;;;25.57;15.60;;;;;;;10.61;52.55;98530.34;4142940;28;20268;-69
2022/03/29 05:41:22;;;;;;;21.00;15.23;;;;;;;11.15;50.80;98510.38;4142458;28;20272;-69
2022/03/29 05:43:24;;;;;;;16.33;13.50;;;;;;;11.61;49.46;98473.63;4148150;28;20256;-68
2022/03/29 05:45:26;;;;;;;18.97;14.20;;;;;;;9.87;54.11;98503.94;4151545;28;20272;-68
2022/03/29 05:49:47;;;;;;;19.17;13.73;;;;;;;11.56;49.99;98474.25;4142348;28;20260;-68
2022/03/29 05:51:51;;;;;;;20.07;15.27;;;;;;;11.11;50.78;98510.97;4141459;28;20241;-70
2022/03/29 05:53:55;;;;;;;19.37;14.33;;;;;;;10.40;53.05;98523.19;4142130;28;20633;-69
2022/03/29 05:55:56;;;;;;;25.20;15.63;;;;;;;10.12;54.50;98515.09;4141825;28;20729;-70
2022/03/29 05:57:58;;;;;;;19.90;13.07;;;;;;;9.62;55.56;98522.00;4157795;28;20649;-69
2022/03/29 06:00:00;;;;;;;16.27;13.10;;;;;;;10.39;52.72;98542.78;4149407;28;20236;-69
2022/03/29 06:02:04;;;;;;;18.87;13.00;;;;;;;10.43;53.44;98532.59;4142478;28;20244;-68
2022/03/29 06:04:09;;;;;;;17.43;13.13;;;;;;;10.15;54.05;98529.84;4147812;28;20236;-68
2022/03/29 06:06:13;;;;;;;18.17;12.60;;;;;;;11.40;50.45;98475.34;4142000;28;20241;-68
2022/03/29 06:08:14;;;;;;;18.47;11.43;;;;;;;11.53;49.25;98478.09;4142791;28;20265;-68
2022/03/29 06:10:16;;;;;;;17.37;11.67;;;;;;;10.66;52.18;98516.47;4141664;28;20365;-68
2022/03/29 06:12:22;;;;;;;15.83;11.73;;;;;;;10.91;51.83;98514.28;4142901;28;20266;-68
2022/03/29 06:14:23;;;;;;;18.83;11.30;;;;;;;11.38;49.04;98506.66;4134223;28;20296;-68
2022/03/29 06:16:25;;;;;;;19.37;11.27;;;;;;;11.73;48.46;98477.38;4157903;28;20277;-68
2022/03/29 06:18:27;;;;;;;16.03;11.97;;;;;;;12.31;46.84;98455.69;4158722;28;20260;-69
2022/03/29 06:20:28;;;;;;;15.13;10.97;;;;;;;11.62;47.26;98494.72;4145189;28;20284;-69
2022/03/29 06:22:31;;;;;;;13.27;10.20;;;;;;;10.76;49.76;98558.75;4141861;28;20260;-69
2022/03/29 06:24:33;;;;;;;16.30;10.50;;;;;;;10.73;51.39;98545.78;4141627;28;20226;-69
2022/03/29 06:26:41;;;;;;;16.63;10.97;;;;;;;10.96;50.16;98535.00;4142037;28;20229;-69
2022/03/29 06:28:43;;;;;;;18.90;10.63;;;;;;;10.64;52.34;98521.16;4140396;28;20347;-69
2022/03/29 06:30:45;;;;;;;15.63;12.03;;;;;;;10.93;51.94;98522.91;4141932;28;20343;-70
2022/03/29 06:32:49;;;;;;;20.83;12.53;;;;;;;11.33;52.29;98506.44;4141489;28;20241;-70
2022/03/29 06:34:51;;;;;;;18.57;13.57;;;;;;;10.69;54.07;98548.00;4141776;28;20245;-70
2022/03/29 06:36:53;;;;;;;22.23;13.50;;;;;;;10.89;53.66;98526.97;4139902;28;20277;-68
2022/03/29 06:38:55;;;;;;;17.13;11.97;;;;;;;11.45;51.18;98504.06;4142115;28;20237;-70
2022/03/29 06:40:58;;;;;;;20.53;12.93;;;;;;;11.81;50.14;98495.84;4139616;28;20373;-69
2022/03/29 06:43:00;;;;;;;17.97;12.43;;;;;;;11.16;51.88;98541.31;4140387;28;20237;-69
2022/03/29 06:45:03;;;;;;;16.40;11.47;;;;;;;11.96;49.27;98494.91;4139420;28;20229;-69
2022/03/29 06:47:06;;;;;;;18.27;11.80;;;;;;;12.45;46.44;98456.50;4141600;28;20634;-69
2022/03/29 06:49:07;;;;;;;19.00;11.57;;;;;;;12.78;46.25;98445.88;4139029;28;20264;-67
2022/03/29 06:51:09;;;;;;;18.93;12.10;;;;;;;11.32;49.65;98556.16;4141953;28;20268;-70
2022/03/29 06:53:11;;;;;;;20.23;11.83;;;;;;;11.05;52.48;98565.75;4141484;28;20283;-70
2022/03/29 06:55:15;;;;;;;19.93;11.67;;;;;;;11.98;47.85;98499.00;4139086;28;20272;-69
2022/03/29 06:57:16;;;;;;;17.43;11.30;;;;;;;12.69;46.08;98464.94;4138905;28;20229;-70
2022/03/29 06:59:18;;;;;;;20.33;11.77;;;;;;;12.98;46.23;98442.44;4141645;28;20567;-68
2022/03/29 07:01:21;;;;;;;24.60;12.20;;;;;;;12.85;47.06;98465.38;4141431;28;20677;-68
2022/03/29 07:03:24;;;;;;;17.63;12.13;;;;;;;12.77;47.03;98478.91;4141357;28;20558;-69
2022/03/29 07:05:25;;;;;;;17.50;11.70;;;;;;;12.48;47.03;98482.78;4139663;28;20232;-69
2022/03/29 07:07:27;;;;;;;15.10;11.07;;;;;;;11.59;49.18;98556.34;4141219;28;20241;-69
2022/03/29 07:11:52;;;;;;;15.83;10.77;;;;;;;12.42;48.01;98483.56;4141722;28;20233;-68
2022/03/29 07:13:53;;;;;;;17.93;10.70;;;;;;;12.60;48.54;98475.00;4141319;28;20701;-70
2022/03/29 07:15:55;;;;;;;19.90;12.33;;;;;;;10.66;51.92;98584.78;4139611;28;20283;-68
2022/03/29 07:17:58;;;;;;;27.93;16.07;;;;;;;10.49;54.49;98550.44;4141977;28;20271;-69
2022/03/29 07:20:00;;;;;;;24.00;15.23;;;;;;;11.57;51.87;98520.31;4141727;28;20291;-68
2022/03/29 07:22:01;;;;;;;19.67;15.03;;;;;;;12.65;48.96;98460.03;4141124;28;20268;-69
2022/03/29 07:24:04;;;;;;;26.77;16.77;;;;;;;12.96;48.17;98445.31;4141019;28;20486;-69
2022/03/29 07:26:06;;;;;;;19.63;14.73;;;;;;;13.44;47.79;98430.03;4138236;28;20271;-69
2022/03/29 07:28:12;;;;;;;22.03;14.47;;;;;;;11.06;52.26;98587.88;4145104;28;20596;-68
2022/03/29 07:30:14;;;;;;;24.10;14.97;;;;;;;11.04;53.49;98564.13;4143905;28;20375;-69
2022/03/29 07:32:15;;;;;;;28.00;17.77;;;;;;;10.57;54.39;98568.13;4137358;28;20709;-69
2022/03/29 07:34:18;;;;;;;27.17;16.43;;;;;;;12.05;50.47;98501.72;4144785;28;20229;-68
2022/03/29 07:36:20;;;;;;;27.53;17.80;;;;;;;11.02;51.93;98578.63;4140928;28;20316;-69
2022/03/29 07:38:22;;;;;;;25.83;15.90;;;;;;;9.25;57.06;98590.81;4140703;28;20266;-69
2022/03/29 07:40:26;;;;;;;19.37;13.97;;;;;;;11.22;54.54;98521.06;4138873;28;20629;-70
2022/03/29 07:42:27;;;;;;;19.30;13.10;;;;;;;12.16;52.32;98489.66;4148164;28;20260;-70
2022/03/29 07:44:29;;;;;;;18.40;12.27;;;;;;;10.59;54.98;98596.16;4146611;28;20260;-70
2022/03/29 07:46:31;;;;;;;16.77;10.77;;;;;;;10.11;53.11;98577.19;4156575;28;20256;-69
2022/03/29 07:48:33;;;;;;;15.40;12.00;;;;;;;11.10;51.56;98558.03;4143893;28;20221;-68
2022/03/29 07:50:55;;;;;;;18.43;11.20;;;;;;;10.55;53.37;98592.25;4142905;28;20241;-69
2022/03/29 07:52:59;;;;;;;15.23;11.90;;;;;;;12.21;50.52;98479.22;4144058;28;20241;-68
2022/03/29 07:55:01;;;;;;;15.63;11.60;;;;;;;11.46;51.21;98551.78;4143538;28;20269;-68
2022/03/29 07:57:16;;;;;;;16.47;12.43;;;;;;;11.86;51.62;98520.06;4135803;28;20241;-68
2022/03/29 07:59:38;;;;;;;14.13;11.30;;;;;;;12.81;48.74;98477.50;4155731;28;20225;-69
2022/03/29 08:01:40;;;;;;;13.77;11.43;;;;;;;13.55;46.57;98440.03;4143588;28;20765;-69
2022/03/29 08:03:42;;;;;;;16.17;11.70;;;;;;;13.75;45.92;98431.94;4142647;28;20316;-67
2022/03/29 08:05:45;;;;;;;16.30;12.43;;;;;;;13.58;45.72;98448.47;4136686;28;20253;-70
2022/03/29 08:07:48;;;;;;;21.93;12.83;;;;;;;13.27;46.64;98478.50;4143534;28;20726;-70
2022/03/29 08:09:50;;;;;;;18.03;12.37;;;;;;;13.87;45.15;98445.50;4142430;28;20336;-68
2022/03/29 08:11:51;;;;;;;19.17;12.70;;;;;;;13.74;45.01;98449.03;4144010;28;20272;-69
2022/03/29 08:13:54;;;;;;;18.77;12.93;;;;;;;14.00;45.00;98452.63;4143191;28;20273;-68
2022/03/29 08:15:57;;;;;;;20.43;12.57;;;;;;;14.28;44.66;98421.00;4142856;28;20273;-71
2022/03/29 08:17:59;;;;;;;19.47;13.30;;;;;;;14.04;45.30;98449.34;4144305;28;20236;-69
2022/03/29 08:20:04;;;;;;;21.97;13.87;;;;;;;14.19;45.77;98464.25;4143904;28;20666;-69
2022/03/29 08:22:06;;;;;;;21.27;13.93;;;;;;;12.98;48.58;98541.97;4143863;28;20261;-67
2022/03/29 08:24:08;;;;;;;22.10;13.77;;;;;;;13.34;48.02;98513.22;4142467;28;20292;-70
2022/03/29 08:26:10;;;;;;;23.87;15.03;;;;;;;13.40;47.06;98510.53;4143732;28;20269;-68
2022/03/29 08:28:14;;;;;;;20.47;14.43;;;;;;;12.80;47.72;98537.19;4146803;28;20700;-68
2022/03/29 08:30:16;;;;;;;23.67;14.80;;;;;;;12.56;48.54;98559.09;4150861;28;20287;-70
2022/03/29 08:32:17;;;;;;;28.53;15.47;;;;;;;12.87;48.47;98537.22;4144118;28;20241;-69
2022/03/29 08:34:19;;;;;;;26.53;15.53;;;;;;;12.81;48.15;98530.84;4142234;28;20267;-68
2022/03/29 08:36:21;;;;;;;28.13;16.77;;;;;;;13.72;46.81;98475.09;4138842;28;20244;-68
2022/03/29 08:38:24;;;;;;;29.47;15.50;;;;;;;14.05;45.87;98472.34;4142625;28;20824;-68
2022/03/29 08:40:27;;;;;;;31.20;19.47;;;;;;;13.09;48.10;98527.19;4142368;28;20287;-68
2022/03/29 08:42:29;;;;;;;30.80;19.67;;;;;;;13.33;47.46;98507.06;4143818;28;20264;-68
2022/03/29 08:44:32;;;;;;;31.87;20.83;;;;;;;14.08;46.29;98463.91;4152455;28;20661;-68
2022/03/29 08:46:38;;;;;;;30.77;18.60;;;;;;;13.89;47.91;98475.50;4158890;28;20232;-68
2022/03/29 08:48:41;;;;;;;30.47;19.30;;;;;;;13.83;48.18;98474.50;4160258;28;20251;-69
2022/03/29 08:50:45;;;;;;;34.33;21.00;;;;;;;13.88;47.32;98474.66;4145004;28;20328;-69
2022/03/29 08:52:50;;;;;;;32.40;19.03;;;;;;;14.68;45.17;98436.78;4142628;28;20596;-68
2022/03/29 08:54:52;;;;;;;34.87;20.23;;;;;;;13.89;47.14;98479.00;4142962;28;20267;-68
2022/03/29 08:56:53;;;;;;;42.20;21.07;;;;;;;14.51;46.14;98443.69;4143239;28;20525;-68
2022/03/29 08:58:56;;;;;;;34.03;20.60;;;;;;;14.74;46.07;98429.72;4143249;28;20635;-68
2022/03/29 09:00:58;;;;;;;31.10;19.60;;;;;;;14.39;47.19;98446.22;4142753;28;20261;-68
2022/03/29 09:02:59;;;;;;;36.30;21.13;;;;;;;15.34;43.87;98397.06;4142834;28;20721;-68
2022/03/29 09:05:12;;;;;;;34.40;19.57;;;;;;;15.58;43.77;98371.22;4142499;28;20771;-68
2022/03/29 09:07:14;;;;;;;30.07;19.97;;;;;;;15.63;44.33;98379.44;4133255;28;20726;-69
2022/03/29 09:09:24;;;;;;;41.63;23.70;;;;;;;15.44;45.69;98385.84;4142690;28;20624;-69
2022/03/29 09:11:39;;;;;;;33.57;21.37;;;;;;;15.03;46.96;98412.19;4159578;28;20240;-69
2022/03/29 09:13:41;;;;;;;33.80;21.97;;;;;;;14.38;48.12;98474.03;4158393;28;20721;-68
2022/03/29 09:15:42;;;;;;;35.20;20.57;;;;;;;14.66;48.52;98432.69;4144329;28;20467;-69
2022/03/29 09:17:46;;;;;;;34.20;21.13;;;;;;;14.63;48.19;98427.75;4142836;28;20316;-69
2022/03/29 09:19:49;;;;;;;33.63;20.73;;;;;;;15.38;46.38;98373.34;4142321;28;20566;-68
2022/03/29 09:21:54;;;;;;;34.73;21.33;;;;;;;13.90;49.84;98480.63;4143344;28;20233;-68
2022/03/29 09:24:15;;;;;;;37.37;21.70;;;;;;;14.09;50.10;98491.44;4142828;28;20660;-68
2022/03/29 09:26:27;;;;;;;38.37;23.03;;;;;;;14.79;48.42;98413.88;4142439;28;20249;-69
2022/03/29 09:28:36;;;;;;;31.17;20.30;;;;;;;15.19;47.92;98367.16;4131750;28;20251;-69
2022/03/29 09:30:50;;;;;;;32.67;20.80;;;;;;;15.52;46.27;98366.75;4141127;28;20253;-68